Time;durP1;ratioP1;P1;durP2;ratioP2;P2;SDS_P1;SDS_P2;PMS_P1;PMS_P2;Temp;Humidity;BMP_temperature;BMP_pressure;BME280_temperature;BME280_humidity;BME280_pressure;Samples;Min_cycle;Max_cycle;Signal;HPM_P1;HPM_P2
2022/06/09 00:00:59;;;;;;;8.82;3.38;;;;;;;14.09;100.00;100764.03;5246171;28;20017;-69
2022/06/09 00:03:40;;;;;;;14.90;4.03;;;;;;;14.17;100.00;100757.16;5246674;28;20485;-69
2022/06/09 00:06:12;;;;;;;13.98;4.03;;;;;;;14.06;100.00;100759.06;5237848;28;20601;-69
2022/06/09 00:08:47;;;;;;;12.98;4.07;;;;;;;14.12;100.00;100763.72;5240209;28;20456;-69
2022/06/09 00:11:22;;;;;;;11.60;3.72;;;;;;;14.11;100.00;100766.50;5242637;28;20036;-69
2022/06/09 00:13:53;;;;;;;10.30;4.05;;;;;;;14.07;100.00;100771.25;5240358;28;20021;-68
2022/06/09 00:16:25;;;;;;;15.77;4.75;;;;;;;14.09;100.00;100779.84;5233637;28;20124;-69
2022/06/09 00:18:57;;;;;;;17.13;4.40;;;;;;;14.13;100.00;100772.47;5232649;28;20033;-68
2022/06/09 00:21:28;;;;;;;14.57;4.25;;;;;;;14.10;100.00;100765.69;5234406;28;20029;-69
2022/06/09 00:23:59;;;;;;;14.20;3.42;;;;;;;14.13;100.00;100772.47;5234126;28;20206;-69
2022/06/09 00:26:31;;;;;;;12.98;3.53;;;;;;;14.13;100.00;100777.72;5232615;28;20030;-71
2022/06/09 00:29:04;;;;;;;15.73;4.05;;;;;;;14.11;100.00;100774.41;5233168;28;20063;-69
2022/06/09 00:31:35;;;;;;;14.37;4.83;;;;;;;14.11;100.00;100774.41;5233233;28;20491;-68
2022/06/09 00:34:06;;;;;;;12.95;5.03;;;;;;;14.12;100.00;100784.78;5234280;28;20056;-69
2022/06/09 00:36:38;;;;;;;16.90;4.45;;;;;;;14.10;100.00;100765.69;5232789;28;20025;-71
2022/06/09 00:39:10;;;;;;;12.50;3.57;;;;;;;14.09;100.00;100777.22;5232782;28;20071;-69
2022/06/09 00:41:43;;;;;;;14.85;4.28;;;;;;;14.04;100.00;100779.47;5215849;28;20108;-70
2022/06/09 00:44:14;;;;;;;;;;;;;;;14.51;100.00;100783.59;5234038;28;20408;-69
2022/06/09 00:46:48;;;;;;;13.90;4.10;;;;;;;14.05;100.00;100778.50;5233235;28;19917;-70
2022/06/09 00:49:28;;;;;;;16.35;4.20;;;;;;;14.06;100.00;100784.59;5231911;28;20460;-69
2022/06/09 00:52:03;;;;;;;13.90;4.25;;;;;;;13.92;100.00;100780.69;5234077;28;20021;-69
2022/06/09 00:54:43;;;;;;;16.73;4.60;;;;;;;13.98;100.00;100797.69;5233661;28;20899;-69
2022/06/09 00:57:34;;;;;;;18.00;4.40;;;;;;;13.90;100.00;100785.28;5232234;28;20052;-68
2022/06/09 01:00:14;;;;;;;16.52;5.32;;;;;;;13.91;100.00;100784.31;5233939;28;20061;-70
2022/06/09 01:02:45;;;;;;;15.55;4.18;;;;;;;13.84;100.00;100792.00;5216789;28;20041;-69
2022/06/09 01:05:21;;;;;;;16.25;4.07;;;;;;;13.85;100.00;100791.00;5233762;28;20017;-69
2022/06/09 01:07:54;;;;;;;13.88;4.50;;;;;;;13.87;100.00;100782.97;5232220;28;20396;-68
2022/06/09 01:10:29;;;;;;;16.52;4.78;;;;;;;13.81;100.00;100788.84;5233436;28;20119;-70
2022/06/09 01:13:01;;;;;;;17.55;4.55;;;;;;;13.82;100.00;100793.94;5234126;28;20047;-69
2022/06/09 01:15:47;;;;;;;14.82;4.80;;;;;;;13.92;100.00;100796.50;5215281;28;20078;-68
2022/06/09 01:18:33;;;;;;;18.13;5.30;;;;;;;13.88;100.00;100790.72;5232030;28;20033;-68
2022/06/09 01:21:26;;;;;;;16.33;4.97;;;;;;;13.91;100.00;100799.31;5236533;28;20449;-68
2022/06/09 01:24:20;;;;;;;12.75;4.68;;;;;;;14.05;100.00;100799.59;5237732;28;20034;-68
2022/06/09 01:27:19;;;;;;;15.40;4.70;;;;;;;14.03;100.00;100805.97;5234157;28;20029;-68
2022/06/09 01:30:06;;;;;;;17.95;5.10;;;;;;;13.85;100.00;100804.19;5219363;28;20029;-68
2022/06/09 01:32:48;;;;;;;20.33;6.00;;;;;;;13.98;100.00;100810.84;5235860;28;20073;-68
2022/06/09 01:35:37;;;;;;;19.65;5.03;;;;;;;13.90;100.00;100800.25;5236961;28;20033;-68
2022/06/09 01:38:10;;;;;;;19.50;5.80;;;;;;;13.82;100.00;100809.75;5235400;28;20033;-68
2022/06/09 01:40:41;;;;;;;15.30;5.13;;;;;;;13.87;100.00;100801.41;5237087;28;20029;-68
2022/06/09 01:43:12;;;;;;;17.63;4.90;;;;;;;13.84;100.00;100809.63;5238166;28;20048;-68
2022/06/09 01:46:05;;;;;;;14.20;5.43;;;;;;;14.00;100.00;100809.72;5236021;28;20037;-68
2022/06/09 01:48:36;;;;;;;18.48;5.57;;;;;;;13.84;100.00;100813.06;5235612;28;20495;-68
2022/06/09 01:51:16;;;;;;;16.23;4.85;;;;;;;13.94;100.00;100820.91;5237811;28;20029;-68
2022/06/09 01:53:51;;;;;;;17.83;5.85;;;;;;;13.82;100.00;100822.91;5236156;28;20029;-68
2022/06/09 01:56:39;;;;;;;14.10;4.88;;;;;;;13.90;100.00;100830.06;5236518;28;20041;-68
2022/06/09 01:59:21;;;;;;;17.17;5.60;;;;;;;13.91;100.00;100834.38;5236157;28;20018;-68
2022/06/09 02:02:00;;;;;;;19.00;6.60;;;;;;;13.83;100.00;100819.31;5217803;28;20033;-68
2022/06/09 02:04:41;;;;;;;22.65;6.40;;;;;;;13.87;100.00;100820.66;5236907;28;20033;-68
2022/06/09 02:07:14;;;;;;;17.70;5.85;;;;;;;13.79;100.00;100817.16;5234190;28;20117;-68
2022/06/09 02:09:46;;;;;;;20.25;6.03;;;;;;;13.74;100.00;100822.03;5236236;28;20547;-68
2022/06/09 02:12:22;;;;;;;21.45;6.00;;;;;;;13.75;100.00;100826.31;5236603;28;20033;-68
2022/06/09 02:14:58;;;;;;;20.45;6.00;;;;;;;13.76;100.00;100835.88;5225129;28;20398;-68
2022/06/09 02:17:40;;;;;;;16.20;6.45;;;;;;;13.88;100.00;100839.94;5214947;28;20034;-68
2022/06/09 02:20:14;;;;;;;19.23;6.65;;;;;;;13.75;100.00;100834.19;5215696;28;20452;-68
2022/06/09 02:22:45;;;;;;;21.55;6.40;;;;;;;13.74;100.00;100840.44;5216077;28;20041;-68
2022/06/09 02:25:17;;;;;;;21.70;7.22;;;;;;;13.72;100.00;100842.44;5216574;28;20381;-68
2022/06/09 02:27:48;;;;;;;23.48;6.55;;;;;;;13.71;100.00;100849.47;5215097;28;20068;-68
2022/06/09 02:30:20;;;;;;;26.50;6.25;;;;;;;13.71;100.00;100846.00;5215583;28;20366;-68
2022/06/09 02:32:51;;;;;;;21.48;6.70;;;;;;;13.69;100.00;100843.53;5198441;28;20160;-68
2022/06/09 02:35:22;;;;;;;23.67;7.68;;;;;;;13.68;100.00;100851.59;5216232;28;20018;-68
2022/06/09 02:37:54;;;;;;;20.60;6.82;;;;;;;13.66;100.00;100849.09;5214698;28;20117;-68
2022/06/09 02:40:28;;;;;;;17.98;6.22;;;;;;;13.66;100.00;100853.53;5215376;28;20453;-68
2022/06/09 02:43:00;;;;;;;26.50;7.50;;;;;;;13.63;100.00;100854.66;5216084;28;20547;-68
2022/06/09 02:45:33;;;;;;;25.30;7.43;;;;;;;13.63;100.00;100857.28;5215768;28;20038;-68
2022/06/09 02:48:05;;;;;;;22.00;6.78;;;;;;;13.64;100.00;100856.34;5213989;28;20150;-68
2022/06/09 02:50:36;;;;;;;16.05;6.45;;;;;;;13.59;100.00;100854.13;5216056;28;20033;-68
2022/06/09 02:53:08;;;;;;;19.90;7.95;;;;;;;13.59;100.00;100866.47;5215605;28;20053;-68
2022/06/09 02:55:40;;;;;;;19.63;7.25;;;;;;;13.58;100.00;100862.19;5198283;28;20030;-68
2022/06/09 02:58:12;;;;;;;23.80;8.07;;;;;;;13.57;100.00;100864.00;5213950;28;20477;-68
2022/06/09 03:00:43;;;;;;;21.63;6.83;;;;;;;13.54;100.00;100864.28;5216012;28;20057;-68
2022/06/09 03:03:15;;;;;;;28.33;7.88;;;;;;;13.55;100.00;100873.84;5215671;28;20084;-68
2022/06/09 03:05:46;;;;;;;24.92;8.02;;;;;;;13.55;100.00;100879.09;5198392;28;20037;-68
2022/06/09 03:08:17;;;;;;;23.08;7.85;;;;;;;13.54;100.00;100885.34;5213277;28;20060;-68
2022/06/09 03:10:49;;;;;;;20.08;7.35;;;;;;;13.54;100.00;100884.53;5215866;28;20022;-68
2022/06/09 03:13:20;;;;;;;20.70;8.30;;;;;;;13.53;100.00;100891.59;5198672;28;20022;-68
2022/06/09 03:15:51;;;;;;;23.13;7.55;;;;;;;13.53;100.00;100891.59;5233051;28;20462;-68
2022/06/09 03:18:23;;;;;;;27.52;7.95;;;;;;;13.52;100.00;100899.63;5234336;28;20025;-68
2022/06/09 03:20:54;;;;;;;24.45;8.05;;;;;;;13.48;100.00;100900.91;5236007;28;20034;-68
2022/06/09 03:23:25;;;;;;;28.60;7.75;;;;;;;13.48;100.00;100903.53;5215378;28;20033;-68
2022/06/09 03:25:57;;;;;;;19.73;7.80;;;;;;;13.47;100.00;100904.50;5235522;28;20116;-68
2022/06/09 03:28:28;;;;;;;21.65;8.07;;;;;;;13.47;100.00;100918.50;5234366;28;20037;-68
2022/06/09 03:31:00;;;;;;;18.83;8.05;;;;;;;13.47;100.00;100909.78;5235387;28;20022;-68
2022/06/09 03:33:31;;;;;;;18.42;6.75;;;;;;;13.46;100.00;100916.03;5233242;28;20033;-68
2022/06/09 03:36:03;;;;;;;23.15;7.60;;;;;;;13.43;100.00;100921.56;5235212;28;20045;-68
2022/06/09 03:38:35;;;;;;;19.13;7.15;;;;;;;13.43;100.00;100930.28;5233904;28;20037;-68
2022/06/09 03:41:07;;;;;;;23.95;8.25;;;;;;;13.43;100.00;100932.09;5234551;28;20028;-68
2022/06/09 03:43:39;;;;;;;28.70;9.20;;;;;;;13.43;100.00;100940.00;5234519;28;20033;-68
2022/06/09 03:46:12;;;;;;;28.27;8.02;;;;;;;13.43;100.00;100940.00;5234599;28;20087;-68
2022/06/09 03:48:43;;;;;;;21.42;7.70;;;;;;;13.41;100.00;100936.66;5233317;28;20079;-68
2022/06/09 03:51:14;;;;;;;22.80;8.07;;;;;;;13.38;100.00;100936.00;5235875;28;20489;-68
2022/06/09 03:53:46;;;;;;;25.45;7.97;;;;;;;13.39;100.00;100944.72;5234293;28;20389;-68
2022/06/09 03:56:20;;;;;;;22.42;7.70;;;;;;;13.40;100.00;100946.38;5234744;28;20048;-68
2022/06/09 03:58:52;;;;;;;24.80;8.10;;;;;;;13.39;100.00;100949.97;5233775;28;20267;-68
2022/06/09 04:01:23;;;;;;;20.63;7.63;;;;;;;13.35;100.00;100957.34;5232927;28;20033;-68
2022/06/09 04:03:54;;;;;;;24.27;8.00;;;;;;;13.36;100.00;100959.00;5234387;28;20025;-68
2022/06/09 04:06:26;;;;;;;27.92;8.57;;;;;;;13.36;100.00;100966.06;5232452;28;20045;-68
2022/06/09 04:08:58;;;;;;;22.40;7.93;;;;;;;13.33;100.00;100972.47;5234122;28;20020;-68
2022/06/09 04:11:30;;;;;;;19.45;8.07;;;;;;;13.36;100.00;100971.31;5233718;28;20412;-68
2022/06/09 04:14:01;;;;;;;21.63;7.13;;;;;;;13.35;100.00;100967.88;5236193;28;20431;-68
2022/06/09 04:16:36;;;;;;;27.27;8.70;;;;;;;13.37;100.00;100972.97;5227515;28;20404;-68
2022/06/09 04:19:11;;;;;;;24.33;7.68;;;;;;;13.34;100.00;100974.13;5243532;28;20025;-68
2022/06/09 04:21:43;;;;;;;23.65;7.88;;;;;;;13.31;100.00;100976.19;5241533;28;20029;-68
2022/06/09 04:24:16;;;;;;;19.92;7.32;;;;;;;13.38;100.00;100986.00;5245342;28;20052;-68
2022/06/09 04:26:48;;;;;;;;;;;;;;;13.91;100.00;100986.31;5244968;28;20025;-68
2022/06/09 04:29:19;;;;;;;19.85;7.75;;;;;;;13.43;100.00;100984.75;5238802;28;19925;-68
2022/06/09 04:31:50;;;;;;;23.42;7.80;;;;;;;13.39;100.00;100984.19;5240515;28;20025;-68
2022/06/09 04:34:22;;;;;;;19.58;7.75;;;;;;;13.39;100.00;100990.28;5248930;28;20020;-68
2022/06/09 04:36:53;;;;;;;23.98;8.27;;;;;;;13.37;100.00;101000.16;5247067;28;20037;-68
2022/06/09 04:39:24;;;;;;;25.73;8.20;;;;;;;13.39;100.00;100998.19;5243257;28;20041;-68
2022/06/09 04:41:55;;;;;;;26.95;8.55;;;;;;;13.39;100.00;101003.44;5244007;28;20056;-68
2022/06/09 04:44:27;;;;;;;22.52;8.55;;;;;;;13.43;100.00;101011.06;5241943;28;20055;-68
2022/06/09 04:46:58;;;;;;;22.88;8.90;;;;;;;13.48;100.00;101016.69;5243428;28;20094;-68
2022/06/09 04:49:29;;;;;;;18.10;7.88;;;;;;;13.50;100.00;101009.50;5239915;28;20021;-68
2022/06/09 04:52:00;;;;;;;26.05;8.00;;;;;;;13.50;100.00;101012.13;5245404;28;20029;-68
2022/06/09 04:54:32;;;;;;;24.67;8.52;;;;;;;13.52;100.00;101011.00;5244573;28;20024;-68
2022/06/09 04:57:03;;;;;;;24.13;8.25;;;;;;;13.53;100.00;101012.69;5239395;28;20282;-68
2022/06/09 04:59:34;;;;;;;22.70;8.52;;;;;;;13.59;100.00;101016.53;5244455;28;20072;-68
2022/06/09 05:02:06;;;;;;;19.90;8.75;;;;;;;13.69;100.00;101019.13;5238694;28;20029;-68
2022/06/09 05:04:37;;;;;;;23.05;8.32;;;;;;;13.71;100.00;101020.59;5244703;28;20052;-68
2022/06/09 05:07:08;;;;;;;28.48;9.52;;;;;;;13.77;100.00;101038.47;5239843;28;20020;-68
2022/06/09 05:09:40;;;;;;;23.15;8.38;;;;;;;13.84;100.00;101042.19;5247652;28;20480;-68
2022/06/09 05:12:11;;;;;;;24.15;9.02;;;;;;;13.91;100.00;101045.06;5243491;28;20021;-68
2022/06/09 05:14:42;;;;;;;30.73;9.52;;;;;;;14.04;100.00;101057.88;5243451;28;20542;-68
2022/06/09 05:17:14;;;;;;;23.02;9.30;;;;;;;14.16;100.00;101061.13;5243362;28;20026;-68
2022/06/09 05:19:45;;;;;;;21.45;8.50;;;;;;;14.35;100.00;101068.91;5224796;28;20884;-68
2022/06/09 05:22:17;;;;;;;20.08;8.55;;;;;;;14.42;100.00;101063.88;5241865;28;20059;-68
2022/06/09 05:24:48;;;;;;;20.00;8.18;;;;;;;14.49;100.00;101065.78;5243484;28;20037;-68
2022/06/09 05:27:20;;;;;;;22.60;8.55;;;;;;;14.59;100.00;101060.47;5241393;28;20025;-68
2022/06/09 05:29:52;;;;;;;17.17;7.85;;;;;;;14.64;100.00;101067.91;5239879;28;20031;-68
2022/06/09 05:32:23;;;;;;;24.95;8.32;;;;;;;14.63;100.00;101079.44;5243655;28;20033;-68
2022/06/09 05:34:54;;;;;;;15.85;6.93;;;;;;;14.63;100.00;101090.00;5245256;28;20033;-68
2022/06/09 05:44:50;;;;;;;20.83;7.22;;;;;;;14.54;100.00;101081.16;5244923;28;20563;-68
2022/06/09 05:46:01;;;;;;;23.80;7.80;;;;;;;14.52;100.00;101102.41;5243771;28;20103;-69
2022/06/09 05:48:33;;;;;;;20.25;7.32;;;;;;;14.57;100.00;101110.69;5239214;28;20101;-68
2022/06/09 05:51:05;;;;;;;17.98;7.25;;;;;;;14.64;100.00;101110.09;5239463;28;20392;-69
2022/06/09 05:53:36;;;;;;;17.30;7.07;;;;;;;14.71;100.00;101104.06;5242874;28;20025;-68
2022/06/09 05:56:09;;;;;;;17.02;7.47;;;;;;;14.84;100.00;101106.31;5238945;28;20042;-68
2022/06/09 05:58:40;;;;;;;16.23;6.67;;;;;;;14.94;100.00;101108.91;5244420;28;20104;-69
2022/06/09 06:01:12;;;;;;;24.38;6.55;;;;;;;15.17;100.00;101114.53;5241974;28;20399;-68
2022/06/09 06:03:44;;;;;;;19.52;7.25;;;;;;;15.23;100.00;101124.47;5240534;28;20037;-68
2022/06/09 06:06:33;;;;;;;20.00;6.80;;;;;;;15.32;100.00;101118.25;5239401;28;20021;-68
2022/06/09 06:09:08;;;;;;;17.70;6.68;;;;;;;15.45;100.00;101133.69;5242209;28;20427;-68
2022/06/09 06:11:40;;;;;;;17.08;7.65;;;;;;;15.41;100.00;101137.63;5243170;28;20029;-68
2022/06/09 06:14:12;;;;;;;15.65;6.47;;;;;;;15.42;100.00;101142.75;5240359;28;20050;-69
2022/06/09 06:16:44;;;;;;;17.58;6.40;;;;;;;15.45;100.00;101144.25;5216429;28;20108;-68
2022/06/09 06:19:17;;;;;;;18.48;6.43;;;;;;;15.50;100.00;101145.47;5216314;28;20036;-69
2022/06/09 06:21:50;;;;;;;18.25;7.35;;;;;;;15.61;100.00;101149.66;5211057;28;20045;-69
2022/06/09 06:24:24;;;;;;;17.23;6.20;;;;;;;15.65;100.00;101155.47;5214767;28;20521;-69
2022/06/09 06:26:55;;;;;;;16.05;6.60;;;;;;;15.69;100.00;101160.31;5205184;28;20039;-68
2022/06/09 06:29:27;;;;;;;16.52;6.70;;;;;;;15.73;100.00;101152.91;5213259;28;20389;-68
2022/06/09 06:31:58;;;;;;;14.57;5.38;;;;;;;15.76;100.00;101163.97;5213309;28;20026;-69
2022/06/09 06:34:30;;;;;;;13.60;6.63;;;;;;;15.79;100.00;101162.81;5213260;28;20701;-69
2022/06/09 06:37:01;;;;;;;13.70;6.63;;;;;;;15.89;100.00;101175.94;5214642;28;20020;-68
2022/06/09 06:39:32;;;;;;;13.95;6.15;;;;;;;15.84;100.00;101170.31;5214858;28;20061;-68
2022/06/09 06:42:04;;;;;;;13.80;5.10;;;;;;;15.93;100.00;101180.75;5212841;28;20072;-68
2022/06/09 06:44:35;;;;;;;18.23;5.65;;;;;;;15.88;100.00;101184.84;5212496;28;20045;-68
2022/06/09 06:47:06;;;;;;;14.38;5.50;;;;;;;15.96;100.00;101182.25;5213279;28;20109;-69
2022/06/09 06:49:38;;;;;;;9.77;5.53;;;;;;;16.02;100.00;101194.81;5214160;28;20022;-69
2022/06/09 06:52:09;;;;;;;17.67;5.97;;;;;;;15.91;100.00;101205.66;5212243;28;20543;-68
2022/06/09 06:54:40;;;;;;;12.52;5.60;;;;;;;15.98;100.00;101202.22;5214804;28;20482;-69
2022/06/09 06:57:12;;;;;;;16.30;6.00;;;;;;;15.96;100.00;101200.75;5211416;28;20041;-69
2022/06/09 06:59:43;;;;;;;12.45;5.55;;;;;;;16.06;100.00;101206.72;5211919;28;20026;-68
2022/06/09 07:02:14;;;;;;;16.45;5.70;;;;;;;16.05;100.00;101199.78;5213918;28;20022;-69
2022/06/09 07:04:45;;;;;;;12.65;5.07;;;;;;;16.07;100.00;101199.66;5214816;28;20033;-68
2022/06/09 07:07:17;;;;;;;11.48;4.80;;;;;;;16.10;100.00;101217.81;5212955;28;20026;-68
2022/06/09 07:09:48;;;;;;;13.30;5.25;;;;;;;16.15;100.00;101213.75;5207393;28;20260;-69
2022/06/09 07:12:20;;;;;;;12.93;5.97;;;;;;;16.19;100.00;101223.00;5208448;28;20500;-69
2022/06/09 07:14:51;;;;;;;10.38;5.10;;;;;;;16.34;100.00;101230.34;5239368;23;20068;-72
2022/06/09 07:17:23;;;;;;;10.90;5.07;;;;;;;16.37;100.00;101232.69;5230378;28;20108;-72
2022/06/09 07:19:55;;;;;;;13.48;4.18;;;;;;;16.36;100.00;101234.47;5232778;28;20151;-71
2022/06/09 07:22:26;;;;;;;9.98;3.55;;;;;;;16.29;100.00;101244.88;5233893;28;20108;-75
2022/06/09 07:24:57;;;;;;;9.43;3.83;;;;;;;16.38;100.00;101248.38;5223555;28;20045;-73
2022/06/09 07:27:29;;;;;;;7.13;2.72;;;;;;;16.33;100.00;101240.09;5218674;28;20051;-71
2022/06/09 07:30:00;;;;;;;12.68;3.20;;;;;;;16.52;100.00;101253.09;5233251;28;20029;-74
2022/06/09 07:32:32;;;;;;;7.32;2.70;;;;;;;16.52;100.00;101258.38;5234619;28;20559;-75
2022/06/09 07:35:07;;;;;;;8.45;3.20;;;;;;;16.56;100.00;101245.66;5234726;28;20392;-71
2022/06/09 07:37:38;;;;;;;7.60;2.38;;;;;;;16.74;100.00;101259.66;5234516;28;20033;-74
2022/06/09 07:40:10;;;;;;;8.60;2.83;;;;;;;16.80;100.00;101244.94;5234391;28;20365;-71
2022/06/09 07:42:45;;;;;;;4.88;2.60;;;;;;;16.92;100.00;101256.03;5234399;28;20025;-69
2022/06/09 07:45:16;;;;;;;5.18;2.25;;;;;;;16.96;100.00;101258.19;5231812;28;20049;-72
2022/06/09 07:47:48;;;;;;;6.95;2.15;;;;;;;17.00;100.00;101250.78;5232515;28;20420;-69
2022/06/09 07:50:19;;;;;;;5.75;2.42;;;;;;;17.00;100.00;101256.06;5233394;28;20045;-73
2022/06/09 07:52:51;;;;;;;5.43;2.08;;;;;;;17.19;100.00;101253.13;5233057;28;20017;-69
2022/06/09 07:55:24;;;;;;;4.75;1.98;;;;;;;17.16;100.00;101260.56;5232474;28;20021;-69
2022/06/09 07:57:55;;;;;;;5.00;1.90;;;;;;;17.22;100.00;101266.03;5214650;28;20040;-70
2022/06/09 08:00:28;;;;;;;5.18;2.30;;;;;;;17.41;100.00;101269.38;5231752;28;20465;-70
2022/06/09 08:03:03;;;;;;;6.25;2.10;;;;;;;17.40;100.00;101265.06;5232337;28;20030;-71
2022/06/09 08:05:35;;;;;;;5.32;1.48;;;;;;;17.42;100.00;101279.78;5229089;28;20496;-72
2022/06/09 08:08:06;;;;;;;4.40;1.70;;;;;;;17.49;100.00;101278.16;5230540;28;20029;-70
2022/06/09 08:10:40;;;;;;;6.23;1.80;;;;;;;17.49;100.00;101270.19;5211296;28;20029;-74
2022/06/09 08:13:11;;;;;;;6.78;1.90;;;;;;;17.60;100.00;101269.06;5229592;28;20022;-70
2022/06/09 08:15:45;;;;;;;4.88;2.03;;;;;;;17.69;100.00;101280.47;5221348;28;20038;-72
2022/06/09 08:18:16;;;;;;;5.57;1.85;;;;;;;17.73;100.00;101287.13;5224830;28;20127;-70
2022/06/09 08:20:48;;;;;;;5.35;1.85;;;;;;;17.81;100.00;101283.66;5229962;28;20029;-71
2022/06/09 08:23:22;;;;;;;4.97;2.10;;;;;;;18.00;100.00;101291.25;5224125;28;20026;-71
2022/06/09 08:25:58;;;;;;;5.97;1.60;;;;;;;17.91;100.00;101302.84;5226351;28;20036;-71
2022/06/09 08:28:30;;;;;;;4.88;1.70;;;;;;;17.76;100.00;101297.41;5233319;28;20451;-72
2022/06/09 08:31:01;;;;;;;4.93;1.92;;;;;;;17.96;100.00;101308.50;5233308;28;20083;-75
2022/06/09 08:33:32;;;;;;;3.83;1.33;;;;;;;17.99;100.00;101313.44;5213960;28;20063;-71
2022/06/09 08:36:04;;;;;;;7.13;1.60;;;;;;;18.07;100.00;101310.81;5221361;28;20029;-70
2022/06/09 08:38:35;;;;;;;6.38;1.70;;;;;;;18.08;100.00;101316.94;5228381;28;20038;-70
2022/06/09 08:41:27;;;;;;;5.17;1.70;;;;;;;18.12;100.00;101318.25;5232969;28;20101;-71
2022/06/09 08:44:23;;;;;;;6.70;2.03;;;;;;;18.17;100.00;101327.34;5231408;28;20056;-70
2022/06/09 08:47:14;;;;;;;5.72;1.38;;;;;;;18.39;100.00;101317.03;5232083;28;20108;-70
2022/06/09 08:49:57;;;;;;;4.38;1.20;;;;;;;18.44;100.00;101327.97;5232930;28;20403;-70
2022/06/09 08:52:49;;;;;;;3.78;1.20;;;;;;;18.43;100.00;101337.75;5231675;28;20522;-70
2022/06/09 08:55:24;;;;;;;3.53;1.42;;;;;;;18.43;100.00;101327.13;5233617;28;20083;-70
2022/06/09 08:58:01;;;;;;;3.75;1.60;;;;;;;18.53;100.00;101334.91;5232690;28;20117;-71
2022/06/09 09:00:38;;;;;;;5.10;2.10;;;;;;;18.60;100.00;101333.25;5231425;28;20026;-70
2022/06/09 09:03:18;;;;;;;4.57;1.75;;;;;;;18.62;100.00;101344.50;5233374;28;20475;-70
2022/06/09 09:05:56;;;;;;;3.88;1.77;;;;;;;18.73;100.00;101346.00;5215226;28;20137;-71
2022/06/09 09:08:27;;;;;;;3.72;1.65;;;;;;;18.69;100.00;101342.81;5231687;28;20099;-70
2022/06/09 09:11:32;;;;;;;5.95;2.22;;;;;;;18.99;100.00;101348.38;5233245;28;20029;-70
2022/06/09 09:14:13;;;;;;;4.30;1.80;;;;;;;18.85;100.00;101351.75;5232384;28;20056;-70
2022/06/09 09:17:09;;;;;;;3.80;1.80;;;;;;;18.94;100.00;101346.25;5232642;28;20493;-72
2022/06/09 09:19:59;;;;;;;4.25;2.35;;;;;;;18.98;100.00;101354.72;5233345;28;20030;-70
2022/06/09 09:22:36;;;;;;;6.05;2.45;;;;;;;18.85;100.00;101362.38;5232777;28;20121;-70
2022/06/09 09:25:21;;;;;;;4.38;2.08;;;;;;;18.57;100.00;101360.13;5231522;28;20030;-70
2022/06/09 09:28:10;;;;;;;2.70;1.75;;;;;;;18.55;100.00;101362.09;5232114;28;20042;-70
2022/06/09 09:30:47;;;;;;;3.63;2.20;;;;;;;18.66;100.00;101366.22;5233158;28;20025;-71
2022/06/09 09:33:20;;;;;;;5.25;1.70;;;;;;;18.63;100.00;101369.22;5232118;28;20029;-70
2022/06/09 09:36:01;;;;;;;4.13;2.15;;;;;;;18.92;100.00;101369.47;5233209;28;20029;-71
2022/06/09 09:38:42;;;;;;;5.07;2.30;;;;;;;19.06;100.00;101375.09;5232578;28;20025;-72
2022/06/09 09:41:36;;;;;;;7.72;3.08;;;;;;;19.20;100.00;101377.81;5234239;28;20032;-71
2022/06/09 09:44:33;;;;;;;6.13;2.70;;;;;;;19.41;100.00;101379.88;5236393;28;20052;-71
2022/06/09 09:47:05;;;;;;;5.95;2.50;;;;;;;19.26;100.00;101380.78;5233617;28;20041;-70
2022/06/09 09:49:48;;;;;;;6.87;3.23;;;;;;;19.33;100.00;101381.75;5237012;28;20388;-71
2022/06/09 09:52:43;;;;;;;4.28;1.90;;;;;;;19.58;100.00;101388.56;5235963;28;20025;-71
2022/06/09 09:55:30;;;;;;;3.80;2.20;;;;;;;19.64;100.00;101385.25;5236337;28;20034;-71
2022/06/09 09:58:24;;;;;;;5.25;1.70;;;;;;;19.80;100.00;101394.09;5235242;28;20029;-72
2022/06/09 10:01:22;;;;;;;7.82;2.38;;;;;;;19.68;100.00;101396.34;5220637;28;20120;-72
2022/06/09 10:10:09;;;;;;;7.20;2.85;;;;;;;19.10;100.00;101413.56;5235710;28;20029;-74
2022/06/09 10:12:41;;;;;;;10.48;4.28;;;;;;;18.62;100.00;101417.97;5236189;28;20026;-72
2022/06/09 10:15:16;;;;;;;9.83;4.30;;;;;;;18.39;100.00;101421.34;5236497;28;20516;-72
2022/06/09 10:18:09;;;;;;;8.48;4.75;;;;;;;18.50;100.00;101433.44;5235577;28;20134;-71
2022/06/09 10:20:59;;;;;;;;;;;;;;;19.01;100.00;101428.69;5218193;28;20029;-71
2022/06/09 10:23:44;;;;;;;5.40;3.40;;;;;;;18.42;100.00;101426.31;5235065;28;19913;-74
2022/06/09 10:26:19;;;;;;;4.80;3.72;;;;;;;18.31;100.00;101424.00;5227416;28;20025;-72
2022/06/09 10:29:15;;;;;;;5.13;4.30;;;;;;;18.65;100.00;101431.75;5233236;28;20021;-71
2022/06/09 10:31:51;;;;;;;5.97;4.10;;;;;;;18.67;100.00;101424.44;5232517;28;20392;-73
2022/06/09 10:34:39;;;;;;;6.38;4.35;;;;;;;18.93;100.00;101434.84;5232717;28;20372;-71
2022/06/09 10:37:20;;;;;;;9.32;5.78;;;;;;;19.45;100.00;101436.16;5230239;28;20024;-74
2022/06/09 10:43:50;;;;;;;9.35;6.15;;;;;;;20.10;100.00;101432.28;5233151;28;20034;-71
2022/06/09 10:46:31;;;;;;;7.57;6.18;;;;;;;20.30;100.00;101432.59;5232920;28;20033;-74
2022/06/09 10:55:30;;;;;;;6.15;4.88;;;;;;;20.57;100.00;101447.19;5236810;28;20033;-72
2022/06/09 10:58:30;;;;;;;4.93;3.25;;;;;;;20.58;100.00;101447.03;5234182;28;20033;-71
2022/06/09 11:01:03;;;;;;;5.47;2.78;;;;;;;20.08;100.00;101458.25;5235415;28;20071;-72
2022/06/09 11:03:47;;;;;;;4.43;2.85;;;;;;;20.21;100.00;101455.81;5232683;28;20032;-72
2022/06/09 11:06:26;;;;;;;4.50;2.53;;;;;;;20.20;100.00;101448.00;5233008;28;20029;-71
2022/06/09 11:09:52;;;;;;;5.00;2.35;;;;;;;20.40;100.00;101457.16;5234973;28;20025;-71
2022/06/09 11:12:49;;;;;;;4.88;2.40;;;;;;;20.22;100.00;101459.28;5152022;28;20094;-72
2022/06/09 11:15:32;;;;;;;5.82;2.80;;;;;;;20.08;100.00;101464.38;5217948;28;20125;-72
2022/06/09 11:18:11;;;;;;;;;;;;;;;20.61;100.00;101472.47;5226122;28;20026;-71
2022/06/09 11:20:59;;;;;;;7.55;2.50;;;;;;;20.01;100.00;101467.94;5225995;28;20279;-72
2022/06/09 11:23:57;;;;;;;6.22;2.67;;;;;;;19.85;100.00;101471.50;5234235;28;20639;-72
2022/06/09 11:27:08;;;;;;;5.82;2.45;;;;;;;20.05;100.00;101478.03;5235476;28;20037;-71
2022/06/09 11:30:14;;;;;;;8.45;3.60;;;;;;;19.84;100.00;101480.50;5223070;28;20455;-71
2022/06/09 11:33:02;;;;;;;8.15;3.05;;;;;;;19.65;100.00;101474.59;5234808;28;20026;-71
2022/06/09 11:35:44;;;;;;;6.68;2.60;;;;;;;19.60;100.00;101478.78;5234601;28;20084;-71
2022/06/09 11:38:30;;;;;;;5.45;2.28;;;;;;;19.54;100.00;101484.78;5233681;28;20133;-71
2022/06/09 11:41:15;;;;;;;6.97;2.50;;;;;;;19.58;100.00;101491.41;5234911;28;20036;-71
2022/06/09 11:44:14;;;;;;;7.13;2.53;;;;;;;19.47;100.00;101497.09;5234727;28;20675;-71
2022/06/09 11:46:45;;;;;;;7.65;2.15;;;;;;;19.45;100.00;101491.97;5234613;28;20464;-71
2022/06/09 11:49:36;;;;;;;7.00;2.37;;;;;;;19.47;100.00;101497.91;5233948;28;20025;-71
2022/06/09 11:52:16;;;;;;;7.95;2.60;;;;;;;19.35;100.00;101505.44;5233629;28;20017;-72
2022/06/09 11:54:54;;;;;;;7.70;2.20;;;;;;;19.47;100.00;101511.19;5233015;28;20069;-73
2022/06/09 11:57:34;;;;;;;6.75;2.47;;;;;;;19.35;100.00;101509.94;5234132;28;20036;-70
2022/06/09 12:00:33;;;;;;;10.77;3.20;;;;;;;19.50;100.00;101515.34;5233156;28;20034;-70
2022/06/09 12:03:13;;;;;;;4.70;2.38;;;;;;;19.30;100.00;101513.09;5233037;28;20021;-71
2022/06/09 12:05:53;;;;;;;12.48;3.03;;;;;;;19.42;100.00;101516.22;5234405;28;20036;-71
2022/06/09 12:08:37;;;;;;;7.22;2.42;;;;;;;19.23;100.00;101524.59;5233449;28;20025;-70
2022/06/09 12:11:11;;;;;;;10.48;2.58;;;;;;;19.21;100.00;101522.09;5233624;28;20026;-72
2022/06/09 12:14:17;;;;;;;9.77;1.80;;;;;;;19.29;100.00;101522.09;5232264;28;20400;-70
2022/06/09 12:17:08;;;;;;;8.02;2.15;;;;;;;19.20;100.00;101531.88;5233977;28;20080;-70
2022/06/09 12:19:51;;;;;;;9.10;2.70;;;;;;;19.14;100.00;101535.22;5233104;28;20605;-70